sensor_id;sensor_type;location;lat;lon;timestamp;P1;durP1;ratioP1;P2;durP2;ratioP2
48925;SDS011;39838;59.938;30.642;2023-09-19T00:00:26;11.10;;;4.22;;
48925;SDS011;39838;59.938;30.642;2023-09-19T00:02:53;6.00;;;4.00;;
48925;SDS011;39838;59.938;30.642;2023-09-19T00:05:25;6.30;;;4.13;;
48925;SDS011;39838;59.938;30.642;2023-09-19T00:07:55;5.85;;;4.10;;
48925;SDS011;39838;59.938;30.642;2023-09-19T00:10:24;6.00;;;4.00;;
48925;SDS011;39838;59.938;30.642;2023-09-19T00:12:53;9.25;;;4.13;;
48925;SDS011;39838;59.938;30.642;2023-09-19T00:15:23;6.97;;;3.67;;
48925;SDS011;39838;59.938;30.642;2023-09-19T00:17:51;5.60;;;3.92;;
48925;SDS011;39838;59.938;30.642;2023-09-19T00:20:18;5.15;;;3.78;;
48925;SDS011;39838;59.938;30.642;2023-09-19T00:22:48;4.97;;;3.45;;
48925;SDS011;39838;59.938;30.642;2023-09-19T00:25:17;4.75;;;3.50;;
48925;SDS011;39838;59.938;30.642;2023-09-19T00:27:45;6.15;;;3.40;;
48925;SDS011;39838;59.938;30.642;2023-09-19T00:30:17;4.25;;;3.05;;
48925;SDS011;39838;59.938;30.642;2023-09-19T00:32:49;4.55;;;3.22;;
48925;SDS011;39838;59.938;30.642;2023-09-19T00:35:19;4.95;;;3.10;;
48925;SDS011;39838;59.938;30.642;2023-09-19T00:37:49;4.25;;;3.10;;
48925;SDS011;39838;59.938;30.642;2023-09-19T00:40:16;4.00;;;2.92;;
48925;SDS011;39838;59.938;30.642;2023-09-19T00:42:45;4.75;;;3.13;;
48925;SDS011;39838;59.938;30.642;2023-09-19T00:45:14;4.15;;;3.08;;
48925;SDS011;39838;59.938;30.642;2023-09-19T00:47:44;6.72;;;3.03;;
48925;SDS011;39838;59.938;30.642;2023-09-19T00:50:16;4.68;;;2.90;;
48925;SDS011;39838;59.938;30.642;2023-09-19T00:52:46;4.38;;;3.10;;
48925;SDS011;39838;59.938;30.642;2023-09-19T00:55:15;7.35;;;3.20;;
48925;SDS011;39838;59.938;30.642;2023-09-19T00:57:45;4.38;;;3.17;;
48925;SDS011;39838;59.938;30.642;2023-09-19T01:00:15;4.97;;;3.20;;
48925;SDS011;39838;59.938;30.642;2023-09-19T01:02:45;4.72;;;3.03;;
48925;SDS011;39838;59.938;30.642;2023-09-19T01:05:14;6.78;;;3.03;;
48925;SDS011;39838;59.938;30.642;2023-09-19T01:07:43;4.43;;;2.97;;
48925;SDS011;39838;59.938;30.642;2023-09-19T01:10:14;6.07;;;3.10;;
48925;SDS011;39838;59.938;30.642;2023-09-19T01:12:48;4.43;;;3.05;;
48925;SDS011;39838;59.938;30.642;2023-09-19T01:15:23;6.70;;;3.17;;
48925;SDS011;39838;59.938;30.642;2023-09-19T01:18:00;5.05;;;3.05;;
48925;SDS011;39838;59.938;30.642;2023-09-19T01:20:37;5.63;;;3.20;;
48925;SDS011;39838;59.938;30.642;2023-09-19T01:23:14;5.20;;;3.17;;
48925;SDS011;39838;59.938;30.642;2023-09-19T01:26:10;4.43;;;2.97;;
48925;SDS011;39838;59.938;30.642;2023-09-19T01:28:53;4.38;;;3.22;;
48925;SDS011;39838;59.938;30.642;2023-09-19T01:31:31;5.22;;;2.90;;
48925;SDS011;39838;59.938;30.642;2023-09-19T01:34:02;4.82;;;3.08;;
48925;SDS011;39838;59.938;30.642;2023-09-19T01:36:32;8.60;;;3.42;;
48925;SDS011;39838;59.938;30.642;2023-09-19T01:39:03;5.55;;;3.22;;
48925;SDS011;39838;59.938;30.642;2023-09-19T01:41:41;3.63;;;2.90;;
48925;SDS011;39838;59.938;30.642;2023-09-19T01:44:21;5.40;;;3.08;;
48925;SDS011;39838;59.938;30.642;2023-09-19T01:46:53;5.20;;;3.00;;
48925;SDS011;39838;59.938;30.642;2023-09-19T01:49:27;4.25;;;2.55;;
48925;SDS011;39838;59.938;30.642;2023-09-19T01:52:05;5.47;;;2.67;;
48925;SDS011;39838;59.938;30.642;2023-09-19T01:54:44;3.58;;;2.80;;
48925;SDS011;39838;59.938;30.642;2023-09-19T01:57:20;5.38;;;3.03;;
48925;SDS011;39838;59.938;30.642;2023-09-19T01:59:57;3.17;;;2.53;;
48925;SDS011;39838;59.938;30.642;2023-09-19T02:02:33;4.10;;;2.70;;
48925;SDS011;39838;59.938;30.642;2023-09-19T02:05:03;3.80;;;2.80;;
48925;SDS011;39838;59.938;30.642;2023-09-19T02:07:31;3.75;;;2.75;;
48925;SDS011;39838;59.938;30.642;2023-09-19T02:09:59;5.78;;;2.80;;
48925;SDS011;39838;59.938;30.642;2023-09-19T02:12:30;3.90;;;2.80;;
48925;SDS011;39838;59.938;30.642;2023-09-19T02:14:58;3.97;;;2.90;;
48925;SDS011;39838;59.938;30.642;2023-09-19T02:17:26;3.80;;;2.90;;
48925;SDS011;39838;59.938;30.642;2023-09-19T02:19:55;4.22;;;2.83;;
48925;SDS011;39838;59.938;30.642;2023-09-19T02:22:24;4.25;;;2.50;;
48925;SDS011;39838;59.938;30.642;2023-09-19T02:24:52;4.35;;;2.58;;
48925;SDS011;39838;59.938;30.642;2023-09-19T02:27:19;4.72;;;2.70;;
48925;SDS011;39838;59.938;30.642;2023-09-19T02:29:46;3.70;;;2.80;;
48925;SDS011;39838;59.938;30.642;2023-09-19T02:32:15;3.75;;;2.80;;
48925;SDS011;39838;59.938;30.642;2023-09-19T02:34:44;3.60;;;2.80;;
48925;SDS011;39838;59.938;30.642;2023-09-19T02:37:13;5.45;;;2.78;;
48925;SDS011;39838;59.938;30.642;2023-09-19T02:39:41;4.10;;;2.65;;
48925;SDS011;39838;59.938;30.642;2023-09-19T02:42:09;3.90;;;2.60;;
48925;SDS011;39838;59.938;30.642;2023-09-19T02:44:36;3.50;;;2.72;;
48925;SDS011;39838;59.938;30.642;2023-09-19T02:47:03;3.63;;;2.72;;
48925;SDS011;39838;59.938;30.642;2023-09-19T02:49:31;4.57;;;2.60;;
48925;SDS011;39838;59.938;30.642;2023-09-19T02:51:58;5.57;;;2.63;;
48925;SDS011;39838;59.938;30.642;2023-09-19T02:54:27;3.25;;;2.55;;
48925;SDS011;39838;59.938;30.642;2023-09-19T02:56:54;3.50;;;2.47;;
48925;SDS011;39838;59.938;30.642;2023-09-19T02:59:22;3.85;;;2.47;;
48925;SDS011;39838;59.938;30.642;2023-09-19T03:01:50;2.92;;;2.30;;
48925;SDS011;39838;59.938;30.642;2023-09-19T03:04:19;2.85;;;2.30;;
48925;SDS011;39838;59.938;30.642;2023-09-19T03:06:47;5.50;;;2.80;;
48925;SDS011;39838;59.938;30.642;2023-09-19T03:09:16;4.90;;;2.45;;
48925;SDS011;39838;59.938;30.642;2023-09-19T03:11:46;3.85;;;2.70;;
48925;SDS011;39838;59.938;30.642;2023-09-19T03:14:13;3.35;;;2.67;;
48925;SDS011;39838;59.938;30.642;2023-09-19T03:16:41;4.53;;;2.55;;
48925;SDS011;39838;59.938;30.642;2023-09-19T03:19:09;4.57;;;2.78;;
48925;SDS011;39838;59.938;30.642;2023-09-19T03:21:37;3.85;;;2.70;;
48925;SDS011;39838;59.938;30.642;2023-09-19T03:24:05;5.43;;;2.72;;
48925;SDS011;39838;59.938;30.642;2023-09-19T03:26:32;3.30;;;2.42;;
48925;SDS011;39838;59.938;30.642;2023-09-19T03:29:04;5.07;;;2.90;;
48925;SDS011;39838;59.938;30.642;2023-09-19T03:31:33;3.88;;;2.80;;
48925;SDS011;39838;59.938;30.642;2023-09-19T03:34:02;3.88;;;2.55;;
48925;SDS011;39838;59.938;30.642;2023-09-19T03:36:30;3.65;;;2.63;;
48925;SDS011;39838;59.938;30.642;2023-09-19T03:38:57;19.38;;;3.00;;
48925;SDS011;39838;59.938;30.642;2023-09-19T03:41:25;3.60;;;2.40;;
48925;SDS011;39838;59.938;30.642;2023-09-19T03:43:52;4.80;;;2.70;;
48925;SDS011;39838;59.938;30.642;2023-09-19T03:46:21;4.10;;;2.80;;
48925;SDS011;39838;59.938;30.642;2023-09-19T03:48:48;4.10;;;2.47;;
48925;SDS011;39838;59.938;30.642;2023-09-19T03:51:15;8.93;;;2.50;;
48925;SDS011;39838;59.938;30.642;2023-09-19T03:53:43;5.82;;;2.58;;
48925;SDS011;39838;59.938;30.642;2023-09-19T03:56:09;3.10;;;2.42;;
48925;SDS011;39838;59.938;30.642;2023-09-19T03:58:36;4.63;;;2.78;;
48925;SDS011;39838;59.938;30.642;2023-09-19T04:01:04;7.50;;;2.80;;
48925;SDS011;39838;59.938;30.642;2023-09-19T04:03:34;5.28;;;3.45;;
48925;SDS011;39838;59.938;30.642;2023-09-19T04:06:11;5.13;;;2.70;;
48925;SDS011;39838;59.938;30.642;2023-09-19T04:08:39;6.63;;;2.90;;
48925;SDS011;39838;59.938;30.642;2023-09-19T04:11:06;6.13;;;2.85;;
48925;SDS011;39838;59.938;30.642;2023-09-19T04:13:34;4.13;;;3.00;;
48925;SDS011;39838;59.938;30.642;2023-09-19T04:16:01;4.20;;;2.80;;
48925;SDS011;39838;59.938;30.642;2023-09-19T04:18:29;3.58;;;2.78;;
48925;SDS011;39838;59.938;30.642;2023-09-19T04:21:00;4.25;;;2.97;;
48925;SDS011;39838;59.938;30.642;2023-09-19T04:23:29;3.90;;;2.90;;
48925;SDS011;39838;59.938;30.642;2023-09-19T04:25:57;5.45;;;3.17;;
48925;SDS011;39838;59.938;30.642;2023-09-19T04:28:25;3.63;;;2.95;;
48925;SDS011;39838;59.938;30.642;2023-09-19T04:30:53;5.25;;;3.20;;
48925;SDS011;39838;59.938;30.642;2023-09-19T04:33:21;5.50;;;3.25;;
48925;SDS011;39838;59.938;30.642;2023-09-19T04:35:49;4.55;;;3.00;;
48925;SDS011;39838;59.938;30.642;2023-09-19T04:38:18;3.45;;;2.80;;
48925;SDS011;39838;59.938;30.642;2023-09-19T04:40:46;4.85;;;3.17;;
48925;SDS011;39838;59.938;30.642;2023-09-19T04:43:14;9.40;;;3.20;;
48925;SDS011;39838;59.938;30.642;2023-09-19T04:45:42;4.05;;;3.00;;
48925;SDS011;39838;59.938;30.642;2023-09-19T04:48:09;8.60;;;3.28;;
48925;SDS011;39838;59.938;30.642;2023-09-19T04:50:37;3.63;;;2.90;;
48925;SDS011;39838;59.938;30.642;2023-09-19T04:53:04;5.45;;;2.80;;
48925;SDS011;39838;59.938;30.642;2023-09-19T04:55:33;5.13;;;3.03;;
48925;SDS011;39838;59.938;30.642;2023-09-19T04:58:01;4.03;;;3.17;;
48925;SDS011;39838;59.938;30.642;2023-09-19T05:00:29;4.10;;;3.20;;
48925;SDS011;39838;59.938;30.642;2023-09-19T05:03:00;4.07;;;3.28;;
48925;SDS011;39838;59.938;30.642;2023-09-19T05:05:29;3.95;;;2.90;;
48925;SDS011;39838;59.938;30.642;2023-09-19T05:07:57;5.28;;;2.90;;
48925;SDS011;39838;59.938;30.642;2023-09-19T05:10:24;4.32;;;3.22;;
48925;SDS011;39838;59.938;30.642;2023-09-19T05:12:54;6.13;;;2.88;;
48925;SDS011;39838;59.938;30.642;2023-09-19T05:15:22;3.22;;;2.75;;
48925;SDS011;39838;59.938;30.642;2023-09-19T05:17:49;4.40;;;2.80;;
48925;SDS011;39838;59.938;30.642;2023-09-19T05:20:20;4.60;;;3.10;;
48925;SDS011;39838;59.938;30.642;2023-09-19T05:22:57;4.78;;;2.85;;
48925;SDS011;39838;59.938;30.642;2023-09-19T05:25:27;5.88;;;2.78;;
48925;SDS011;39838;59.938;30.642;2023-09-19T05:27:58;3.67;;;2.80;;
48925;SDS011;39838;59.938;30.642;2023-09-19T05:30:29;3.50;;;2.80;;
48925;SDS011;39838;59.938;30.642;2023-09-19T05:32:56;6.40;;;3.00;;
48925;SDS011;39838;59.938;30.642;2023-09-19T05:35:24;6.15;;;3.00;;
48925;SDS011;39838;59.938;30.642;2023-09-19T05:37:51;8.90;;;3.20;;
48925;SDS011;39838;59.938;30.642;2023-09-19T05:40:20;6.32;;;3.10;;
48925;SDS011;39838;59.938;30.642;2023-09-19T05:42:48;5.05;;;3.10;;
48925;SDS011;39838;59.938;30.642;2023-09-19T05:45:18;5.72;;;3.38;;
48925;SDS011;39838;59.938;30.642;2023-09-19T05:47:48;3.97;;;3.15;;
48925;SDS011;39838;59.938;30.642;2023-09-19T05:50:16;5.75;;;3.20;;
48925;SDS011;39838;59.938;30.642;2023-09-19T05:52:51;6.30;;;3.25;;
48925;SDS011;39838;59.938;30.642;2023-09-19T05:55:18;5.13;;;3.10;;
48925;SDS011;39838;59.938;30.642;2023-09-19T05:57:49;3.85;;;3.00;;
48925;SDS011;39838;59.938;30.642;2023-09-19T06:00:18;4.75;;;2.65;;
48925;SDS011;39838;59.938;30.642;2023-09-19T06:02:49;3.63;;;2.40;;
48925;SDS011;39838;59.938;30.642;2023-09-19T06:05:17;3.33;;;2.50;;
48925;SDS011;39838;59.938;30.642;2023-09-19T06:07:45;4.10;;;2.47;;
48925;SDS011;39838;59.938;30.642;2023-09-19T06:10:13;4.03;;;2.33;;
48925;SDS011;39838;59.938;30.642;2023-09-19T06:12:41;2.63;;;2.00;;
48925;SDS011;39838;59.938;30.642;2023-09-19T06:15:10;3.78;;;2.20;;
48925;SDS011;39838;59.938;30.642;2023-09-19T06:17:43;3.90;;;2.60;;
48925;SDS011;39838;59.938;30.642;2023-09-19T06:20:13;4.10;;;2.22;;
48925;SDS011;39838;59.938;30.642;2023-09-19T06:22:44;4.93;;;2.20;;
48925;SDS011;39838;59.938;30.642;2023-09-19T06:25:15;3.13;;;2.35;;
48925;SDS011;39838;59.938;30.642;2023-09-19T06:27:45;2.92;;;2.20;;
48925;SDS011;39838;59.938;30.642;2023-09-19T06:30:13;4.13;;;2.30;;
48925;SDS011;39838;59.938;30.642;2023-09-19T06:32:43;5.18;;;2.60;;
48925;SDS011;39838;59.938;30.642;2023-09-19T06:35:11;2.30;;;2.10;;
48925;SDS011;39838;59.938;30.642;2023-09-19T06:37:40;3.15;;;2.22;;
48925;SDS011;39838;59.938;30.642;2023-09-19T06:40:10;3.70;;;2.40;;
48925;SDS011;39838;59.938;30.642;2023-09-19T06:42:40;5.68;;;2.22;;
48925;SDS011;39838;59.938;30.642;2023-09-19T06:45:09;2.60;;;2.15;;
48925;SDS011;39838;59.938;30.642;2023-09-19T06:47:38;3.40;;;2.13;;
48925;SDS011;39838;59.938;30.642;2023-09-19T06:50:08;3.45;;;2.35;;
48925;SDS011;39838;59.938;30.642;2023-09-19T06:52:39;5.57;;;2.72;;
48925;SDS011;39838;59.938;30.642;2023-09-19T06:55:07;4.70;;;2.40;;
48925;SDS011;39838;59.938;30.642;2023-09-19T06:57:35;3.45;;;2.53;;
48925;SDS011;39838;59.938;30.642;2023-09-19T07:00:02;7.43;;;2.42;;
48925;SDS011;39838;59.938;30.642;2023-09-19T07:02:34;7.85;;;2.50;;
48925;SDS011;39838;59.938;30.642;2023-09-19T07:05:02;5.45;;;2.60;;
48925;SDS011;39838;59.938;30.642;2023-09-19T07:07:32;5.82;;;2.50;;
48925;SDS011;39838;59.938;30.642;2023-09-19T07:10:00;4.57;;;2.70;;
48925;SDS011;39838;59.938;30.642;2023-09-19T07:12:29;4.57;;;2.63;;
48925;SDS011;39838;59.938;30.642;2023-09-19T07:14:56;3.65;;;2.63;;
48925;SDS011;39838;59.938;30.642;2023-09-19T07:17:24;3.60;;;2.58;;
48925;SDS011;39838;59.938;30.642;2023-09-19T07:19:52;4.43;;;2.67;;
48925;SDS011;39838;59.938;30.642;2023-09-19T07:22:20;3.78;;;2.60;;
48925;SDS011;39838;59.938;30.642;2023-09-19T07:24:50;4.95;;;2.72;;
48925;SDS011;39838;59.938;30.642;2023-09-19T07:27:18;4.22;;;2.80;;
48925;SDS011;39838;59.938;30.642;2023-09-19T07:29:45;5.03;;;2.95;;
48925;SDS011;39838;59.938;30.642;2023-09-19T07:32:13;4.53;;;2.70;;
48925;SDS011;39838;59.938;30.642;2023-09-19T07:34:42;4.25;;;2.72;;
48925;SDS011;39838;59.938;30.642;2023-09-19T07:37:10;5.68;;;2.80;;
48925;SDS011;39838;59.938;30.642;2023-09-19T07:39:39;4.57;;;2.90;;
48925;SDS011;39838;59.938;30.642;2023-09-19T07:42:08;5.68;;;2.95;;
48925;SDS011;39838;59.938;30.642;2023-09-19T07:44:37;4.18;;;3.05;;
48925;SDS011;39838;59.938;30.642;2023-09-19T07:47:04;6.25;;;3.40;;
48925;SDS011;39838;59.938;30.642;2023-09-19T07:49:34;6.65;;;3.67;;
48925;SDS011;39838;59.938;30.642;2023-09-19T07:52:02;6.47;;;3.67;;
48925;SDS011;39838;59.938;30.642;2023-09-19T07:54:30;8.75;;;4.20;;
48925;SDS011;39838;59.938;30.642;2023-09-19T07:57:01;7.78;;;4.13;;
48925;SDS011;39838;59.938;30.642;2023-09-19T07:59:30;9.52;;;3.92;;
48925;SDS011;39838;59.938;30.642;2023-09-19T08:01:57;7.68;;;4.00;;
48925;SDS011;39838;59.938;30.642;2023-09-19T08:04:24;8.35;;;4.50;;
48925;SDS011;39838;59.938;30.642;2023-09-19T08:06:52;6.95;;;4.70;;
48925;SDS011;39838;59.938;30.642;2023-09-19T08:09:21;7.65;;;4.80;;
48925;SDS011;39838;59.938;30.642;2023-09-19T08:11:52;6.65;;;4.70;;
48925;SDS011;39838;59.938;30.642;2023-09-19T08:14:19;7.88;;;5.40;;
48925;SDS011;39838;59.938;30.642;2023-09-19T08:16:49;9.77;;;5.00;;
48925;SDS011;39838;59.938;30.642;2023-09-19T08:19:16;8.30;;;4.97;;
48925;SDS011;39838;59.938;30.642;2023-09-19T08:21:46;10.20;;;5.18;;
48925;SDS011;39838;59.938;30.642;2023-09-19T08:24:14;8.45;;;5.47;;
48925;SDS011;39838;59.938;30.642;2023-09-19T08:26:45;9.40;;;5.30;;
48925;SDS011;39838;59.938;30.642;2023-09-19T08:29:12;7.65;;;5.40;;
48925;SDS011;39838;59.938;30.642;2023-09-19T08:31:40;7.55;;;5.22;;
48925;SDS011;39838;59.938;30.642;2023-09-19T08:34:08;10.80;;;5.85;;
48925;SDS011;39838;59.938;30.642;2023-09-19T08:36:36;8.70;;;4.90;;
48925;SDS011;39838;59.938;30.642;2023-09-19T08:39:04;7.60;;;5.32;;
48925;SDS011;39838;59.938;30.642;2023-09-19T08:41:31;8.18;;;5.38;;
48925;SDS011;39838;59.938;30.642;2023-09-19T08:43:58;14.02;;;5.88;;
48925;SDS011;39838;59.938;30.642;2023-09-19T08:46:27;12.18;;;5.32;;
48925;SDS011;39838;59.938;30.642;2023-09-19T08:49:03;7.82;;;5.55;;
48925;SDS011;39838;59.938;30.642;2023-09-19T08:51:40;10.40;;;5.75;;
48925;SDS011;39838;59.938;30.642;2023-09-19T08:54:12;9.35;;;5.53;;
48925;SDS011;39838;59.938;30.642;2023-09-19T08:56:48;10.00;;;5.63;;
48925;SDS011;39838;59.938;30.642;2023-09-19T08:59:17;9.05;;;5.30;;
48925;SDS011;39838;59.938;30.642;2023-09-19T09:01:50;9.82;;;6.07;;
48925;SDS011;39838;59.938;30.642;2023-09-19T09:04:19;15.52;;;5.90;;
48925;SDS011;39838;59.938;30.642;2023-09-19T09:06:50;10.98;;;6.57;;
48925;SDS011;39838;59.938;30.642;2023-09-19T09:09:19;13.43;;;6.65;;
48925;SDS011;39838;59.938;30.642;2023-09-19T09:11:48;11.68;;;6.28;;
48925;SDS011;39838;59.938;30.642;2023-09-19T09:14:18;10.10;;;6.28;;
48925;SDS011;39838;59.938;30.642;2023-09-19T09:16:47;10.57;;;6.32;;
48925;SDS011;39838;59.938;30.642;2023-09-19T09:19:18;15.68;;;6.57;;
48925;SDS011;39838;59.938;30.642;2023-09-19T09:21:51;12.02;;;6.50;;
48925;SDS011;39838;59.938;30.642;2023-09-19T09:24:28;8.45;;;5.57;;
48925;SDS011;39838;59.938;30.642;2023-09-19T09:26:56;8.95;;;6.28;;
48925;SDS011;39838;59.938;30.642;2023-09-19T09:32:21;11.93;;;6.38;;
48925;SDS011;39838;59.938;30.642;2023-09-19T09:34:50;12.90;;;6.38;;
48925;SDS011;39838;59.938;30.642;2023-09-19T09:37:21;10.98;;;6.47;;
48925;SDS011;39838;59.938;30.642;2023-09-19T09:39:53;9.60;;;6.57;;
48925;SDS011;39838;59.938;30.642;2023-09-19T09:42:30;11.25;;;6.40;;
48925;SDS011;39838;59.938;30.642;2023-09-19T09:48:03;12.38;;;6.63;;
48925;SDS011;39838;59.938;30.642;2023-09-19T09:50:45;10.02;;;6.70;;
48925;SDS011;39838;59.938;30.642;2023-09-19T09:53:26;10.77;;;6.32;;
48925;SDS011;39838;59.938;30.642;2023-09-19T09:55:59;7.93;;;6.20;;
48925;SDS011;39838;59.938;30.642;2023-09-19T09:58:28;9.98;;;6.70;;
48925;SDS011;39838;59.938;30.642;2023-09-19T10:00:58;10.30;;;6.78;;
48925;SDS011;39838;59.938;30.642;2023-09-19T10:03:34;10.82;;;6.03;;
48925;SDS011;39838;59.938;30.642;2023-09-19T10:06:08;9.65;;;6.40;;
48925;SDS011;39838;59.938;30.642;2023-09-19T10:09:03;11.90;;;6.57;;
48925;SDS011;39838;59.938;30.642;2023-09-19T10:11:40;11.15;;;6.85;;
48925;SDS011;39838;59.938;30.642;2023-09-19T10:14:10;11.98;;;6.50;;
48925;SDS011;39838;59.938;30.642;2023-09-19T10:16:45;12.05;;;7.00;;
48925;SDS011;39838;59.938;30.642;2023-09-19T10:19:21;11.25;;;7.30;;
48925;SDS011;39838;59.938;30.642;2023-09-19T10:22:00;9.13;;;6.18;;
48925;SDS011;39838;59.938;30.642;2023-09-19T10:24:31;10.75;;;6.80;;
48925;SDS011;39838;59.938;30.642;2023-09-19T10:27:02;12.80;;;6.55;;
48925;SDS011;39838;59.938;30.642;2023-09-19T10:29:32;9.75;;;6.30;;
48925;SDS011;39838;59.938;30.642;2023-09-19T10:32:02;10.10;;;6.38;;
48925;SDS011;39838;59.938;30.642;2023-09-19T10:34:34;9.93;;;7.13;;
48925;SDS011;39838;59.938;30.642;2023-09-19T10:37:02;9.45;;;6.18;;
48925;SDS011;39838;59.938;30.642;2023-09-19T10:39:36;14.00;;;6.40;;
48925;SDS011;39838;59.938;30.642;2023-09-19T10:42:07;13.85;;;6.75;;
48925;SDS011;39838;59.938;30.642;2023-09-19T10:44:42;10.25;;;7.13;;
48925;SDS011;39838;59.938;30.642;2023-09-19T10:47:12;9.73;;;6.80;;
48925;SDS011;39838;59.938;30.642;2023-09-19T10:49:43;10.23;;;6.85;;
48925;SDS011;39838;59.938;30.642;2023-09-19T10:52:12;10.63;;;6.72;;
48925;SDS011;39838;59.938;30.642;2023-09-19T10:54:48;8.60;;;6.72;;
48925;SDS011;39838;59.938;30.642;2023-09-19T10:57:19;11.98;;;6.93;;
48925;SDS011;39838;59.938;30.642;2023-09-19T11:00:02;10.50;;;7.13;;
48925;SDS011;39838;59.938;30.642;2023-09-19T11:05:59;11.13;;;6.78;;
48925;SDS011;39838;59.938;30.642;2023-09-19T11:08:30;11.38;;;7.13;;
48925;SDS011;39838;59.938;30.642;2023-09-19T11:25:52;10.75;;;7.03;;
48925;SDS011;39838;59.938;30.642;2023-09-19T11:28:31;9.65;;;7.28;;
48925;SDS011;39838;59.938;30.642;2023-09-19T11:40:06;13.73;;;7.53;;
48925;SDS011;39838;59.938;30.642;2023-09-19T11:42:41;12.65;;;7.82;;
48925;SDS011;39838;59.938;30.642;2023-09-19T11:48:24;13.98;;;8.45;;
48925;SDS011;39838;59.938;30.642;2023-09-19T11:50:53;11.48;;;8.57;;
48925;SDS011;39838;59.938;30.642;2023-09-19T11:53:22;11.63;;;7.90;;
48925;SDS011;39838;59.938;30.642;2023-09-19T11:55:50;11.43;;;7.38;;
48925;SDS011;39838;59.938;30.642;2023-09-19T11:58:19;11.50;;;6.88;;
48925;SDS011;39838;59.938;30.642;2023-09-19T12:00:47;11.02;;;7.40;;
48925;SDS011;39838;59.938;30.642;2023-09-19T12:03:24;15.65;;;7.22;;
48925;SDS011;39838;59.938;30.642;2023-09-19T12:05:57;9.55;;;6.95;;
48925;SDS011;39838;59.938;30.642;2023-09-19T12:08:28;11.68;;;8.27;;
48925;SDS011;39838;59.938;30.642;2023-09-19T12:10:56;9.80;;;7.03;;
48925;SDS011;39838;59.938;30.642;2023-09-19T12:13:23;9.88;;;7.22;;
48925;SDS011;39838;59.938;30.642;2023-09-19T12:15:51;16.88;;;7.18;;
48925;SDS011;39838;59.938;30.642;2023-09-19T12:18:29;13.05;;;7.18;;
48925;SDS011;39838;59.938;30.642;2023-09-19T12:20:59;10.20;;;6.63;;
48925;SDS011;39838;59.938;30.642;2023-09-19T12:23:30;9.70;;;7.13;;
48925;SDS011;39838;59.938;30.642;2023-09-19T12:26:02;14.70;;;7.20;;
48925;SDS011;39838;59.938;30.642;2023-09-19T12:28:40;10.50;;;7.03;;
48925;SDS011;39838;59.938;30.642;2023-09-19T12:31:08;10.95;;;6.85;;
48925;SDS011;39838;59.938;30.642;2023-09-19T12:33:38;9.07;;;6.90;;
48925;SDS011;39838;59.938;30.642;2023-09-19T12:36:19;10.98;;;6.50;;
48925;SDS011;39838;59.938;30.642;2023-09-19T12:38:50;14.65;;;7.30;;
48925;SDS011;39838;59.938;30.642;2023-09-19T12:41:20;11.65;;;7.18;;
48925;SDS011;39838;59.938;30.642;2023-09-19T12:43:48;12.07;;;6.90;;
48925;SDS011;39838;59.938;30.642;2023-09-19T12:46:19;11.88;;;6.40;;
48925;SDS011;39838;59.938;30.642;2023-09-19T12:51:44;8.65;;;6.45;;
48925;SDS011;39838;59.938;30.642;2023-09-19T12:54:13;11.55;;;6.97;;
48925;SDS011;39838;59.938;30.642;2023-09-19T12:56:42;12.32;;;6.97;;
48925;SDS011;39838;59.938;30.642;2023-09-19T12:59:14;11.88;;;6.85;;
48925;SDS011;39838;59.938;30.642;2023-09-19T13:01:42;9.40;;;6.55;;
48925;SDS011;39838;59.938;30.642;2023-09-19T13:06:46;8.52;;;6.25;;
48925;SDS011;39838;59.938;30.642;2023-09-19T13:09:14;12.30;;;6.82;;
48925;SDS011;39838;59.938;30.642;2023-09-19T13:11:43;9.32;;;6.50;;
48925;SDS011;39838;59.938;30.642;2023-09-19T13:14:14;9.60;;;6.57;;
48925;SDS011;39838;59.938;30.642;2023-09-19T13:16:55;10.18;;;6.72;;
48925;SDS011;39838;59.938;30.642;2023-09-19T13:19:37;12.18;;;6.80;;
48925;SDS011;39838;59.938;30.642;2023-09-19T13:25:05;10.32;;;6.80;;
48925;SDS011;39838;59.938;30.642;2023-09-19T13:27:33;8.55;;;6.18;;
48925;SDS011;39838;59.938;30.642;2023-09-19T13:30:01;9.10;;;7.13;;
48925;SDS011;39838;59.938;30.642;2023-09-19T13:32:31;10.77;;;7.00;;
48925;SDS011;39838;59.938;30.642;2023-09-19T13:35:03;8.70;;;6.20;;
48925;SDS011;39838;59.938;30.642;2023-09-19T13:37:34;10.90;;;6.18;;
48925;SDS011;39838;59.938;30.642;2023-09-19T13:40:04;8.40;;;6.90;;
48925;SDS011;39838;59.938;30.642;2023-09-19T13:42:32;10.13;;;6.25;;
48925;SDS011;39838;59.938;30.642;2023-09-19T13:44:59;10.88;;;6.70;;
48925;SDS011;39838;59.938;30.642;2023-09-19T13:47:29;13.60;;;7.32;;
48925;SDS011;39838;59.938;30.642;2023-09-19T13:49:58;13.48;;;6.63;;
48925;SDS011;39838;59.938;30.642;2023-09-19T13:52:28;9.18;;;6.80;;
48925;SDS011;39838;59.938;30.642;2023-09-19T13:54:56;10.68;;;7.03;;
48925;SDS011;39838;59.938;30.642;2023-09-19T13:57:24;11.05;;;7.30;;
48925;SDS011;39838;59.938;30.642;2023-09-19T13:59:52;10.48;;;7.20;;
48925;SDS011;39838;59.938;30.642;2023-09-19T14:02:20;10.85;;;7.32;;
48925;SDS011;39838;59.938;30.642;2023-09-19T14:04:49;13.13;;;7.40;;
48925;SDS011;39838;59.938;30.642;2023-09-19T14:07:20;12.18;;;7.05;;
48925;SDS011;39838;59.938;30.642;2023-09-19T14:09:49;9.88;;;7.10;;
48925;SDS011;39838;59.938;30.642;2023-09-19T14:12:19;14.95;;;7.30;;
48925;SDS011;39838;59.938;30.642;2023-09-19T14:14:46;10.98;;;7.10;;
48925;SDS011;39838;59.938;30.642;2023-09-19T14:17:16;10.20;;;7.15;;
48925;SDS011;39838;59.938;30.642;2023-09-19T14:19:44;10.77;;;7.10;;
48925;SDS011;39838;59.938;30.642;2023-09-19T14:22:11;10.50;;;6.90;;
48925;SDS011;39838;59.938;30.642;2023-09-19T14:24:39;13.75;;;7.72;;
48925;SDS011;39838;59.938;30.642;2023-09-19T14:27:09;10.52;;;7.22;;
48925;SDS011;39838;59.938;30.642;2023-09-19T14:29:36;11.70;;;7.38;;
48925;SDS011;39838;59.938;30.642;2023-09-19T14:32:04;11.50;;;7.43;;
48925;SDS011;39838;59.938;30.642;2023-09-19T14:34:32;10.25;;;7.63;;
48925;SDS011;39838;59.938;30.642;2023-09-19T14:37:02;16.42;;;7.82;;
48925;SDS011;39838;59.938;30.642;2023-09-19T14:39:29;15.23;;;7.85;;
48925;SDS011;39838;59.938;30.642;2023-09-19T14:41:56;12.55;;;7.68;;
48925;SDS011;39838;59.938;30.642;2023-09-19T14:44:25;14.52;;;7.28;;
48925;SDS011;39838;59.938;30.642;2023-09-19T14:46:53;17.90;;;7.60;;
48925;SDS011;39838;59.938;30.642;2023-09-19T14:49:20;12.23;;;7.28;;
48925;SDS011;39838;59.938;30.642;2023-09-19T14:51:48;13.52;;;7.80;;
48925;SDS011;39838;59.938;30.642;2023-09-19T14:54:17;15.60;;;7.65;;
48925;SDS011;39838;59.938;30.642;2023-09-19T14:56:45;12.60;;;7.97;;
48925;SDS011;39838;59.938;30.642;2023-09-19T14:59:19;14.57;;;7.47;;
48925;SDS011;39838;59.938;30.642;2023-09-19T15:01:48;11.55;;;7.75;;
48925;SDS011;39838;59.938;30.642;2023-09-19T15:04:15;9.60;;;7.15;;
48925;SDS011;39838;59.938;30.642;2023-09-19T15:06:43;11.38;;;8.18;;
48925;SDS011;39838;59.938;30.642;2023-09-19T15:09:14;12.65;;;7.57;;
48925;SDS011;39838;59.938;30.642;2023-09-19T15:11:44;11.07;;;7.88;;
48925;SDS011;39838;59.938;30.642;2023-09-19T15:14:11;9.57;;;7.28;;
48925;SDS011;39838;59.938;30.642;2023-09-19T15:16:38;12.85;;;7.72;;
48925;SDS011;39838;59.938;30.642;2023-09-19T15:19:09;12.70;;;7.82;;
48925;SDS011;39838;59.938;30.642;2023-09-19T15:21:36;10.73;;;7.18;;
48925;SDS011;39838;59.938;30.642;2023-09-19T15:24:04;14.68;;;7.75;;
48925;SDS011;39838;59.938;30.642;2023-09-19T15:26:34;13.63;;;8.07;;
48925;SDS011;39838;59.938;30.642;2023-09-19T15:29:05;14.00;;;8.15;;
48925;SDS011;39838;59.938;30.642;2023-09-19T15:31:32;12.68;;;8.05;;